sensor_id;sensor_type;location;lat;lon;timestamp;pressure;altitude;pressure_sealevel;temperature;humidity
84413;BME280;74611;53.106;8.778;2024-01-25T00:00:52;102404.97;;;5.56;87.52
84413;BME280;74611;53.106;8.778;2024-01-25T00:03:18;102399.03;;;5.52;87.80
84413;BME280;74611;53.106;8.778;2024-01-25T00:05:43;102389.97;;;5.55;87.12
84413;BME280;74611;53.106;8.778;2024-01-25T00:08:09;102406.94;;;5.65;86.83
84413;BME280;74611;53.106;8.778;2024-01-25T00:10:36;102404.75;;;5.59;86.87
84413;BME280;74611;53.106;8.778;2024-01-25T00:13:01;102397.94;;;5.55;88.12
84413;BME280;74611;53.106;8.778;2024-01-25T00:15:27;102397.84;;;5.56;87.46
84413;BME280;74611;53.106;8.778;2024-01-25T00:17:52;102402.69;;;5.62;87.64
84413;BME280;74611;53.106;8.778;2024-01-25T00:20:18;102391.94;;;5.64;87.35
84413;BME280;74611;53.106;8.778;2024-01-25T00:22:43;102393.78;;;5.63;87.52
84413;BME280;74611;53.106;8.778;2024-01-25T00:25:09;102397.50;;;5.61;87.96
84413;BME280;74611;53.106;8.778;2024-01-25T00:27:34;102400.03;;;5.62;88.15
84413;BME280;74611;53.106;8.778;2024-01-25T00:30:00;102403.31;;;5.66;87.35
84413;BME280;74611;53.106;8.778;2024-01-25T00:32:26;102407.91;;;5.64;87.29
84413;BME280;74611;53.106;8.778;2024-01-25T00:34:51;102405.88;;;5.67;87.57
84413;BME280;74611;53.106;8.778;2024-01-25T00:37:17;102410.00;;;5.71;87.06
84413;BME280;74611;53.106;8.778;2024-01-25T00:39:43;102418.31;;;5.67;87.65
84413;BME280;74611;53.106;8.778;2024-01-25T00:42:12;102410.81;;;5.61;87.35
84413;BME280;74611;53.106;8.778;2024-01-25T00:44:38;102415.66;;;5.67;87.59
84413;BME280;74611;53.106;8.778;2024-01-25T00:47:04;102417.88;;;5.73;86.52
84413;BME280;74611;53.106;8.778;2024-01-25T00:49:29;102413.00;;;5.67;87.36
84413;BME280;74611;53.106;8.778;2024-01-25T00:51:59;102415.66;;;5.67;88.00
84413;BME280;74611;53.106;8.778;2024-01-25T00:54:28;102414.19;;;5.63;87.05
84413;BME280;74611;53.106;8.778;2024-01-25T00:56:54;102409.81;;;5.62;87.24
84413;BME280;74611;53.106;8.778;2024-01-25T00:59:20;102403.78;;;5.60;87.61
84413;BME280;74611;53.106;8.778;2024-01-25T01:01:47;102409.94;;;5.60;87.74
84413;BME280;74611;53.106;8.778;2024-01-25T01:04:16;102410.41;;;5.54;88.04
84413;BME280;74611;53.106;8.778;2024-01-25T01:06:42;102413.91;;;5.55;88.45
84413;BME280;74611;53.106;8.778;2024-01-25T01:09:08;102424.66;;;5.53;88.22
84413;BME280;74611;53.106;8.778;2024-01-25T01:11:34;102422.00;;;5.53;87.71
84413;BME280;74611;53.106;8.778;2024-01-25T01:14:01;102418.59;;;5.51;87.68
84413;BME280;74611;53.106;8.778;2024-01-25T01:16:27;102426.59;;;5.51;87.80
84413;BME280;74611;53.106;8.778;2024-01-25T01:18:54;102428.72;;;5.46;87.61
84413;BME280;74611;53.106;8.778;2024-01-25T01:21:19;102433.31;;;5.44;87.91
84413;BME280;74611;53.106;8.778;2024-01-25T01:23:46;102445.41;;;5.48;88.05
84413;BME280;74611;53.106;8.778;2024-01-25T01:26:11;102433.09;;;5.47;88.24
84413;BME280;74611;53.106;8.778;2024-01-25T01:28:37;102435.03;;;5.45;88.30
84413;BME280;74611;53.106;8.778;2024-01-25T01:31:02;102435.16;;;5.44;88.26
84413;BME280;74611;53.106;8.778;2024-01-25T01:33:28;102439.50;;;5.45;88.04
84413;BME280;74611;53.106;8.778;2024-01-25T01:35:54;102437.16;;;5.40;87.83
84413;BME280;74611;53.106;8.778;2024-01-25T01:38:19;102453.25;;;5.39;88.60
84413;BME280;74611;53.106;8.778;2024-01-25T01:40:45;102458.69;;;5.37;87.58
84413;BME280;74611;53.106;8.778;2024-01-25T01:43:21;102461.34;;;5.37;88.33
84413;BME280;74611;53.106;8.778;2024-01-25T01:45:48;102457.72;;;5.38;88.21
84413;BME280;74611;53.106;8.778;2024-01-25T01:48:15;102460.50;;;5.37;87.89
84413;BME280;74611;53.106;8.778;2024-01-25T01:50:44;102463.25;;;5.35;88.63
84413;BME280;74611;53.106;8.778;2024-01-25T01:53:11;102450.91;;;5.34;88.13
84413;BME280;74611;53.106;8.778;2024-01-25T01:55:39;102462.50;;;5.33;88.49
84413;BME280;74611;53.106;8.778;2024-01-25T01:58:05;102465.28;;;5.31;88.22
84413;BME280;74611;53.106;8.778;2024-01-25T02:00:31;102470.81;;;5.28;88.45
84413;BME280;74611;53.106;8.778;2024-01-25T02:02:59;102485.09;;;5.27;88.83
84413;BME280;74611;53.106;8.778;2024-01-25T02:05:24;102475.31;;;5.28;88.15
84413;BME280;74611;53.106;8.778;2024-01-25T02:07:50;102480.09;;;5.23;88.20
84413;BME280;74611;53.106;8.778;2024-01-25T02:10:17;102476.97;;;5.29;87.66
84413;BME280;74611;53.106;8.778;2024-01-25T02:12:43;102480.94;;;5.23;88.50
84413;BME280;74611;53.106;8.778;2024-01-25T02:15:09;102473.31;;;5.19;88.14
84413;BME280;74611;53.106;8.778;2024-01-25T02:17:34;102471.25;;;5.22;87.94
84413;BME280;74611;53.106;8.778;2024-01-25T02:20:00;102483.81;;;5.20;88.16
84413;BME280;74611;53.106;8.778;2024-01-25T02:22:28;102473.41;;;5.17;88.49
84413;BME280;74611;53.106;8.778;2024-01-25T02:24:54;102486.59;;;5.19;88.74
84413;BME280;74611;53.106;8.778;2024-01-25T02:27:19;102485.63;;;5.20;88.15
84413;BME280;74611;53.106;8.778;2024-01-25T02:29:45;102488.28;;;5.20;88.51
84413;BME280;74611;53.106;8.778;2024-01-25T02:32:10;102490.44;;;5.15;88.61
84413;BME280;74611;53.106;8.778;2024-01-25T02:34:36;102492.03;;;5.17;88.59
84413;BME280;74611;53.106;8.778;2024-01-25T02:37:02;102488.97;;;5.11;88.91
84413;BME280;74611;53.106;8.778;2024-01-25T02:39:27;102495.97;;;5.12;88.51
84413;BME280;74611;53.106;8.778;2024-01-25T02:41:53;102493.84;;;5.04;88.96
84413;BME280;74611;53.106;8.778;2024-01-25T02:44:19;102497.13;;;5.08;88.54
84413;BME280;74611;53.106;8.778;2024-01-25T02:46:44;102499.69;;;5.09;88.70
84413;BME280;74611;53.106;8.778;2024-01-25T02:49:11;102489.38;;;5.05;88.79
84413;BME280;74611;53.106;8.778;2024-01-25T02:51:37;102489.38;;;5.05;88.53
84413;BME280;74611;53.106;8.778;2024-01-25T02:54:03;102478.00;;;5.03;88.73
84413;BME280;74611;53.106;8.778;2024-01-25T02:56:28;102487.56;;;5.05;88.70
84413;BME280;74611;53.106;8.778;2024-01-25T02:59:00;102497.34;;;5.05;88.99
84413;BME280;74611;53.106;8.778;2024-01-25T03:01:26;102497.78;;;4.99;89.12
84413;BME280;74611;53.106;8.778;2024-01-25T03:03:53;102498.44;;;5.02;88.34
84413;BME280;74611;53.106;8.778;2024-01-25T03:06:18;102503.97;;;4.99;89.15
84413;BME280;74611;53.106;8.778;2024-01-25T03:08:44;102518.94;;;5.00;88.68
84413;BME280;74611;53.106;8.778;2024-01-25T03:11:09;102518.31;;;4.97;88.80
84413;BME280;74611;53.106;8.778;2024-01-25T03:13:35;102526.81;;;5.02;88.64
84413;BME280;74611;53.106;8.778;2024-01-25T03:16:01;102527.25;;;4.96;88.82
84413;BME280;74611;53.106;8.778;2024-01-25T03:18:26;102541.47;;;4.95;88.93
84413;BME280;74611;53.106;8.778;2024-01-25T03:20:52;102536.28;;;4.93;88.95
84413;BME280;74611;53.106;8.778;2024-01-25T03:23:17;102544.34;;;4.92;89.00
84413;BME280;74611;53.106;8.778;2024-01-25T03:25:43;102541.69;;;4.92;88.75
84413;BME280;74611;53.106;8.778;2024-01-25T03:28:09;102518.75;;;4.91;89.79
84413;BME280;74611;53.106;8.778;2024-01-25T03:30:36;102537.34;;;4.91;88.72
84413;BME280;74611;53.106;8.778;2024-01-25T03:33:02;102529.50;;;4.89;89.61
84413;BME280;74611;53.106;8.778;2024-01-25T03:35:27;102538.84;;;4.82;89.10
84413;BME280;74611;53.106;8.778;2024-01-25T03:37:53;102549.97;;;4.87;89.20
84413;BME280;74611;53.106;8.778;2024-01-25T03:40:18;102554.53;;;4.85;89.44
84413;BME280;74611;53.106;8.778;2024-01-25T03:42:44;102554.78;;;4.82;89.03
84413;BME280;74611;53.106;8.778;2024-01-25T03:45:10;102556.69;;;4.80;89.58
84413;BME280;74611;53.106;8.778;2024-01-25T03:47:35;102557.63;;;4.79;89.28
84413;BME280;74611;53.106;8.778;2024-01-25T03:50:01;102562.09;;;4.79;88.90
84413;BME280;74611;53.106;8.778;2024-01-25T03:52:26;102561.25;;;4.78;89.50
84413;BME280;74611;53.106;8.778;2024-01-25T03:54:55;102567.53;;;4.77;89.32
84413;BME280;74611;53.106;8.778;2024-01-25T03:57:21;102567.53;;;4.77;89.48
84413;BME280;74611;53.106;8.778;2024-01-25T03:59:46;102568.38;;;4.78;89.45
84413;BME280;74611;53.106;8.778;2024-01-25T04:02:12;102577.41;;;4.75;90.05
84413;BME280;74611;53.106;8.778;2024-01-25T04:04:37;102574.88;;;4.74;89.33
84413;BME280;74611;53.106;8.778;2024-01-25T04:07:03;102591.63;;;4.74;90.11
84413;BME280;74611;53.106;8.778;2024-01-25T04:09:29;102594.50;;;4.71;89.44
84413;BME280;74611;53.106;8.778;2024-01-25T04:11:56;102593.34;;;4.75;89.65
84413;BME280;74611;53.106;8.778;2024-01-25T04:14:21;102588.88;;;4.76;89.55
84413;BME280;74611;53.106;8.778;2024-01-25T04:16:47;102589.94;;;4.73;89.27
84413;BME280;74611;53.106;8.778;2024-01-25T04:19:12;102583.88;;;4.71;89.82
84413;BME280;74611;53.106;8.778;2024-01-25T04:21:38;102585.50;;;4.74;89.82
84413;BME280;74611;53.106;8.778;2024-01-25T04:24:04;102585.88;;;4.68;88.97
84413;BME280;74611;53.106;8.778;2024-01-25T04:26:30;102587.72;;;4.67;89.64
84413;BME280;74611;53.106;8.778;2024-01-25T04:28:56;102594.81;;;4.67;89.30
84413;BME280;74611;53.106;8.778;2024-01-25T04:31:21;102604.28;;;4.71;89.78
84413;BME280;74611;53.106;8.778;2024-01-25T04:33:47;102600.38;;;4.76;89.45
84413;BME280;74611;53.106;8.778;2024-01-25T04:36:13;102607.78;;;4.71;89.61
84413;BME280;74611;53.106;8.778;2024-01-25T04:38:38;102608.53;;;4.73;89.84
84413;BME280;74611;53.106;8.778;2024-01-25T04:41:04;102615.97;;;4.68;89.84
84413;BME280;74611;53.106;8.778;2024-01-25T04:43:34;102608.00;;;4.68;89.64
84413;BME280;74611;53.106;8.778;2024-01-25T04:46:02;102620.34;;;4.69;90.30
84413;BME280;74611;53.106;8.778;2024-01-25T04:48:28;102604.41;;;4.69;89.19
84413;BME280;74611;53.106;8.778;2024-01-25T04:50:56;102611.69;;;4.66;89.91
84413;BME280;74611;53.106;8.778;2024-01-25T04:53:22;102610.66;;;4.68;89.92
84413;BME280;74611;53.106;8.778;2024-01-25T04:55:47;102608.72;;;4.70;90.21
84413;BME280;74611;53.106;8.778;2024-01-25T04:58:13;102602.91;;;4.65;89.92
84413;BME280;74611;53.106;8.778;2024-01-25T05:00:39;102610.88;;;4.65;89.86
84413;BME280;74611;53.106;8.778;2024-01-25T05:03:05;102609.78;;;4.68;90.30
84413;BME280;74611;53.106;8.778;2024-01-25T05:05:30;102616.38;;;4.62;90.05
84413;BME280;74611;53.106;8.778;2024-01-25T05:07:56;102611.94;;;4.63;89.99
84413;BME280;74611;53.106;8.778;2024-01-25T05:10:21;102612.41;;;4.55;90.10
84413;BME280;74611;53.106;8.778;2024-01-25T05:12:48;102617.25;;;4.63;90.29
84413;BME280;74611;53.106;8.778;2024-01-25T05:15:14;102616.56;;;4.59;90.01
84413;BME280;74611;53.106;8.778;2024-01-25T05:17:40;102619.91;;;4.63;90.70
84413;BME280;74611;53.106;8.778;2024-01-25T05:20:06;102611.69;;;4.53;89.75
84413;BME280;74611;53.106;8.778;2024-01-25T05:22:32;102605.19;;;4.57;90.27
84413;BME280;74611;53.106;8.778;2024-01-25T05:24:57;102606.06;;;4.57;89.49
84413;BME280;74611;53.106;8.778;2024-01-25T05:27:26;102601.59;;;4.58;90.15
84413;BME280;74611;53.106;8.778;2024-01-25T05:29:51;102606.16;;;4.56;90.77
84413;BME280;74611;53.106;8.778;2024-01-25T05:32:17;102613.47;;;4.52;89.34
84413;BME280;74611;53.106;8.778;2024-01-25T05:34:42;102597.75;;;4.49;89.87
84413;BME280;74611;53.106;8.778;2024-01-25T05:37:08;102606.38;;;4.53;90.03
84413;BME280;74611;53.106;8.778;2024-01-25T05:39:33;102613.28;;;4.55;90.26
84413;BME280;74611;53.106;8.778;2024-01-25T05:41:59;102623.03;;;4.55;90.65
84413;BME280;74611;53.106;8.778;2024-01-25T05:44:24;102630.81;;;4.58;90.53
84413;BME280;74611;53.106;8.778;2024-01-25T05:46:50;102633.69;;;4.68;91.25
84413;BME280;74611;53.106;8.778;2024-01-25T05:49:16;102646.75;;;4.58;89.83
84413;BME280;74611;53.106;8.778;2024-01-25T05:51:41;102642.50;;;4.55;89.62
84413;BME280;74611;53.106;8.778;2024-01-25T05:54:07;102649.41;;;4.58;89.99
84413;BME280;74611;53.106;8.778;2024-01-25T05:56:33;102636.78;;;4.62;91.08
84413;BME280;74611;53.106;8.778;2024-01-25T05:58:58;102642.31;;;4.58;90.69
84413;BME280;74611;53.106;8.778;2024-01-25T06:01:24;102651.22;;;4.57;90.72
84413;BME280;74611;53.106;8.778;2024-01-25T06:03:50;102650.16;;;4.60;90.99
84413;BME280;74611;53.106;8.778;2024-01-25T06:06:15;102646.53;;;4.61;90.52
84413;BME280;74611;53.106;8.778;2024-01-25T06:08:41;102655.59;;;4.58;90.44
84413;BME280;74611;53.106;8.778;2024-01-25T06:11:06;102658.03;;;4.62;90.93
84413;BME280;74611;53.106;8.778;2024-01-25T06:13:33;102658.31;;;4.57;90.55
84413;BME280;74611;53.106;8.778;2024-01-25T06:15:58;102661.66;;;4.61;90.61
84413;BME280;74611;53.106;8.778;2024-01-25T06:18:25;102672.16;;;4.62;89.88
84413;BME280;74611;53.106;8.778;2024-01-25T06:20:50;102663.63;;;4.57;90.49
84413;BME280;74611;53.106;8.778;2024-01-25T06:23:16;102667.03;;;4.59;90.44
84413;BME280;74611;53.106;8.778;2024-01-25T06:25:42;102663.56;;;4.58;90.59
84413;BME280;74611;53.106;8.778;2024-01-25T06:28:08;102662.84;;;4.69;90.24
84413;BME280;74611;53.106;8.778;2024-01-25T06:30:44;102682.69;;;4.64;89.84
84413;BME280;74611;53.106;8.778;2024-01-25T06:33:12;102667.91;;;4.59;89.44
84413;BME280;74611;53.106;8.778;2024-01-25T06:35:44;102668.56;;;4.63;90.15
84413;BME280;74611;53.106;8.778;2024-01-25T06:38:09;102677.19;;;4.67;90.62
84413;BME280;74611;53.106;8.778;2024-01-25T06:40:35;102680.78;;;4.66;89.91
84413;BME280;74611;53.106;8.778;2024-01-25T06:43:01;102682.78;;;4.62;90.56
84413;BME280;74611;53.106;8.778;2024-01-25T06:45:27;102689.81;;;4.63;89.55
84413;BME280;74611;53.106;8.778;2024-01-25T06:47:52;102695.59;;;4.70;90.63
84413;BME280;74611;53.106;8.778;2024-01-25T06:50:18;102697.78;;;4.63;90.19
84413;BME280;74611;53.106;8.778;2024-01-25T06:52:43;102693.31;;;4.64;91.03
84413;BME280;74611;53.106;8.778;2024-01-25T06:55:09;102704.69;;;4.66;90.30
84413;BME280;74611;53.106;8.778;2024-01-25T06:57:35;102710.75;;;4.68;90.64
84413;BME280;74611;53.106;8.778;2024-01-25T07:00:00;102707.63;;;4.61;90.16
84413;BME280;74611;53.106;8.778;2024-01-25T07:02:26;102718.19;;;4.63;90.81
84413;BME280;74611;53.106;8.778;2024-01-25T07:04:52;102733.91;;;4.66;90.47
84413;BME280;74611;53.106;8.778;2024-01-25T07:07:19;102736.66;;;4.64;90.46
84413;BME280;74611;53.106;8.778;2024-01-25T07:09:44;102739.97;;;4.68;91.33
84413;BME280;74611;53.106;8.778;2024-01-25T07:12:10;102732.78;;;4.70;90.54
84413;BME280;74611;53.106;8.778;2024-01-25T07:14:36;102741.69;;;4.69;90.48
84413;BME280;74611;53.106;8.778;2024-01-25T07:17:01;102739.13;;;4.67;90.06
84413;BME280;74611;53.106;8.778;2024-01-25T07:19:27;102751.56;;;4.67;90.08
84413;BME280;74611;53.106;8.778;2024-01-25T07:21:52;102747.00;;;4.69;90.50
84413;BME280;74611;53.106;8.778;2024-01-25T07:24:18;102755.84;;;4.69;90.14
84413;BME280;74611;53.106;8.778;2024-01-25T07:26:44;102744.44;;;4.67;91.04
84413;BME280;74611;53.106;8.778;2024-01-25T07:29:09;102754.22;;;4.67;90.29
84413;BME280;74611;53.106;8.778;2024-01-25T07:31:35;102752.41;;;4.67;90.17
84413;BME280;74611;53.106;8.778;2024-01-25T07:34:01;102771.25;;;4.77;91.60
84413;BME280;74611;53.106;8.778;2024-01-25T07:36:26;102766.25;;;4.72;90.78
84413;BME280;74611;53.106;8.778;2024-01-25T07:38:52;102776.13;;;4.70;89.79
84413;BME280;74611;53.106;8.778;2024-01-25T07:41:17;102764.56;;;4.71;90.94
84413;BME280;74611;53.106;8.778;2024-01-25T07:43:43;102774.03;;;4.75;90.25
84413;BME280;74611;53.106;8.778;2024-01-25T07:46:09;102778.28;;;4.78;91.19
84413;BME280;74611;53.106;8.778;2024-01-25T07:48:35;102772.22;;;4.76;89.81
84413;BME280;74611;53.106;8.778;2024-01-25T07:51:01;102774.13;;;4.74;90.63
84413;BME280;74611;53.106;8.778;2024-01-25T07:53:27;102784.47;;;4.78;90.00
84413;BME280;74611;53.106;8.778;2024-01-25T07:55:52;102785.00;;;4.83;90.48
84413;BME280;74611;53.106;8.778;2024-01-25T07:58:18;102778.94;;;4.81;90.81
84413;BME280;74611;53.106;8.778;2024-01-25T08:00:43;102776.38;;;4.80;89.90
84413;BME280;74611;53.106;8.778;2024-01-25T08:03:10;102783.50;;;4.79;89.64
84413;BME280;74611;53.106;8.778;2024-01-25T08:05:36;102781.69;;;4.80;90.15
84413;BME280;74611;53.106;8.778;2024-01-25T08:08:02;102786.91;;;4.81;89.76
84413;BME280;74611;53.106;8.778;2024-01-25T08:10:27;102792.88;;;4.85;89.80
84413;BME280;74611;53.106;8.778;2024-01-25T08:12:53;102786.81;;;4.83;90.67
84413;BME280;74611;53.106;8.778;2024-01-25T08:15:19;102787.34;;;4.88;90.37
84413;BME280;74611;53.106;8.778;2024-01-25T08:17:44;102795.03;;;4.92;90.81
84413;BME280;74611;53.106;8.778;2024-01-25T08:20:13;102792.19;;;4.95;90.15
84413;BME280;74611;53.106;8.778;2024-01-25T08:22:40;102798.25;;;4.97;90.84
84413;BME280;74611;53.106;8.778;2024-01-25T08:25:07;102805.47;;;4.95;90.25
84413;BME280;74611;53.106;8.778;2024-01-25T08:27:33;102796.75;;;4.93;90.74
84413;BME280;74611;53.106;8.778;2024-01-25T08:29:59;102803.47;;;4.99;91.34
84413;BME280;74611;53.106;8.778;2024-01-25T08:32:25;102801.47;;;5.02;90.74
84413;BME280;74611;53.106;8.778;2024-01-25T08:34:50;102806.00;;;5.00;90.75
84413;BME280;74611;53.106;8.778;2024-01-25T08:37:16;102800.69;;;5.00;89.94
84413;BME280;74611;53.106;8.778;2024-01-25T08:39:41;102793.50;;;5.02;89.93
84413;BME280;74611;53.106;8.778;2024-01-25T08:42:08;102792.41;;;5.05;90.32
84413;BME280;74611;53.106;8.778;2024-01-25T08:44:34;102794.78;;;5.09;90.95
84413;BME280;74611;53.106;8.778;2024-01-25T08:46:59;102788.69;;;5.07;90.72
84413;BME280;74611;53.106;8.778;2024-01-25T08:49:25;102794.69;;;5.11;91.08
84413;BME280;74611;53.106;8.778;2024-01-25T08:51:53;102797.44;;;5.09;90.68
84413;BME280;74611;53.106;8.778;2024-01-25T08:54:18;102799.78;;;5.14;90.32
84413;BME280;74611;53.106;8.778;2024-01-25T08:56:44;102800.66;;;5.14;89.98
84413;BME280;74611;53.106;8.778;2024-01-25T08:59:13;102800.66;;;5.14;90.12
84413;BME280;74611;53.106;8.778;2024-01-25T09:01:38;102810.69;;;5.23;90.70
84413;BME280;74611;53.106;8.778;2024-01-25T09:04:05;102816.75;;;5.25;90.70
84413;BME280;74611;53.106;8.778;2024-01-25T09:06:31;102814.19;;;5.24;90.05
84413;BME280;74611;53.106;8.778;2024-01-25T09:08:56;102814.09;;;5.25;90.16
84413;BME280;74611;53.106;8.778;2024-01-25T09:11:23;102822.81;;;5.27;90.26
84413;BME280;74611;53.106;8.778;2024-01-25T09:13:48;102818.13;;;5.31;90.56
84413;BME280;74611;53.106;8.778;2024-01-25T09:16:15;102816.97;;;5.35;90.70
84413;BME280;74611;53.106;8.778;2024-01-25T09:18:41;102814.00;;;5.40;89.88
84413;BME280;74611;53.106;8.778;2024-01-25T09:21:10;102820.94;;;5.42;90.20
84413;BME280;74611;53.106;8.778;2024-01-25T09:23:35;102823.69;;;5.41;90.08
84413;BME280;74611;53.106;8.778;2024-01-25T09:26:01;102831.47;;;5.44;89.83
84413;BME280;74611;53.106;8.778;2024-01-25T09:28:27;102832.13;;;5.47;89.40
84413;BME280;74611;53.106;8.778;2024-01-25T09:30:52;102839.91;;;5.50;89.62
84413;BME280;74611;53.106;8.778;2024-01-25T09:33:18;102843.19;;;5.54;89.88
84413;BME280;74611;53.106;8.778;2024-01-25T09:35:43;102842.44;;;5.52;89.53
84413;BME280;74611;53.106;8.778;2024-01-25T09:38:12;102845.66;;;5.57;89.61
84413;BME280;74611;53.106;8.778;2024-01-25T09:40:38;102855.16;;;5.61;89.34
84413;BME280;74611;53.106;8.778;2024-01-25T09:43:03;102852.19;;;5.65;89.77
84413;BME280;74611;53.106;8.778;2024-01-25T09:45:30;102865.56;;;5.64;89.71
84413;BME280;74611;53.106;8.778;2024-01-25T09:47:56;102862.72;;;5.67;89.24
84413;BME280;74611;53.106;8.778;2024-01-25T09:50:23;102867.06;;;5.68;89.25
84413;BME280;74611;53.106;8.778;2024-01-25T09:52:54;102869.63;;;5.69;89.35
84413;BME280;74611;53.106;8.778;2024-01-25T09:55:24;102864.09;;;5.72;89.78
84413;BME280;74611;53.106;8.778;2024-01-25T09:57:53;102867.41;;;5.76;89.46
84413;BME280;74611;53.106;8.778;2024-01-25T10:00:20;102865.56;;;5.76;89.30
84413;BME280;74611;53.106;8.778;2024-01-25T10:02:50;102874.00;;;5.83;89.13
84413;BME280;74611;53.106;8.778;2024-01-25T10:05:18;102875.75;;;5.84;89.08
84413;BME280;74611;53.106;8.778;2024-01-25T10:07:48;102878.22;;;5.87;88.00
84413;BME280;74611;53.106;8.778;2024-01-25T10:10:14;102888.63;;;5.90;89.29
84413;BME280;74611;53.106;8.778;2024-01-25T10:12:41;102891.97;;;5.93;89.12
84413;BME280;74611;53.106;8.778;2024-01-25T10:15:07;102890.69;;;5.99;89.24
84413;BME280;74611;53.106;8.778;2024-01-25T10:17:33;102891.31;;;6.02;89.75
84413;BME280;74611;53.106;8.778;2024-01-25T10:19:59;102902.75;;;6.04;89.47
84413;BME280;74611;53.106;8.778;2024-01-25T10:22:24;102905.06;;;6.09;89.17
84413;BME280;74611;53.106;8.778;2024-01-25T10:24:53;102915.72;;;6.09;87.95
84413;BME280;74611;53.106;8.778;2024-01-25T10:27:19;102911.03;;;6.13;87.94
84413;BME280;74611;53.106;8.778;2024-01-25T10:29:45;102902.50;;;6.20;89.10
84413;BME280;74611;53.106;8.778;2024-01-25T10:32:11;102914.03;;;6.21;88.54
84413;BME280;74611;53.106;8.778;2024-01-25T10:34:38;102915.63;;;6.23;88.84
84413;BME280;74611;53.106;8.778;2024-01-25T10:37:05;102927.03;;;6.25;89.12
84413;BME280;74611;53.106;8.778;2024-01-25T10:39:32;102920.75;;;6.26;88.93
84413;BME280;74611;53.106;8.778;2024-01-25T10:42:02;102915.09;;;6.31;89.12
84413;BME280;74611;53.106;8.778;2024-01-25T10:44:31;102915.88;;;6.33;89.55
84413;BME280;74611;53.106;8.778;2024-01-25T10:46:57;102915.50;;;6.37;89.61
84413;BME280;74611;53.106;8.778;2024-01-25T10:49:24;102916.78;;;6.44;89.02
84413;BME280;74611;53.106;8.778;2024-01-25T10:51:50;102910.53;;;6.45;89.38
84413;BME280;74611;53.106;8.778;2024-01-25T10:54:16;102904.75;;;6.51;88.21
84413;BME280;74611;53.106;8.778;2024-01-25T10:56:42;102899.97;;;6.56;89.86
84413;BME280;74611;53.106;8.778;2024-01-25T10:59:10;102898.78;;;6.60;87.28
84413;BME280;74611;53.106;8.778;2024-01-25T11:01:36;102893.34;;;6.62;87.87
84413;BME280;74611;53.106;8.778;2024-01-25T11:04:11;102893.53;;;6.71;88.80
84413;BME280;74611;53.106;8.778;2024-01-25T11:06:36;102892.47;;;6.74;88.75
84413;BME280;74611;53.106;8.778;2024-01-25T11:09:06;102902.47;;;6.83;88.23
84413;BME280;74611;53.106;8.778;2024-01-25T11:11:32;102896.06;;;6.85;88.35
84413;BME280;74611;53.106;8.778;2024-01-25T11:13:58;102898.50;;;6.89;87.86
84413;BME280;74611;53.106;8.778;2024-01-25T11:16:32;102900.13;;;6.91;86.83
84413;BME280;74611;53.106;8.778;2024-01-25T11:19:00;102902.22;;;6.99;87.16
84413;BME280;74611;53.106;8.778;2024-01-25T11:21:48;102886.06;;;7.13;87.70
84413;BME280;74611;53.106;8.778;2024-01-25T11:24:23;102869.50;;;7.20;89.01
84413;BME280;74611;53.106;8.778;2024-01-25T11:26:53;102876.81;;;7.29;88.40
84413;BME280;74611;53.106;8.778;2024-01-25T11:29:20;102867.53;;;7.35;87.15
84413;BME280;74611;53.106;8.778;2024-01-25T11:31:48;102860.13;;;7.38;89.13
84413;BME280;74611;53.106;8.778;2024-01-25T11:34:15;102865.47;;;7.38;84.87
84413;BME280;74611;53.106;8.778;2024-01-25T11:36:43;102867.94;;;7.52;86.78
84413;BME280;74611;53.106;8.778;2024-01-25T11:39:08;102864.78;;;7.47;86.71
84413;BME280;74611;53.106;8.778;2024-01-25T11:41:35;102872.19;;;7.55;87.99
84413;BME280;74611;53.106;8.778;2024-01-25T11:44:02;102865.84;;;7.45;86.92
84413;BME280;74611;53.106;8.778;2024-01-25T11:46:28;102864.53;;;7.50;88.36
84413;BME280;74611;53.106;8.778;2024-01-25T11:48:55;102873.56;;;7.60;87.64
84413;BME280;74611;53.106;8.778;2024-01-25T11:51:21;102868.09;;;7.62;88.77
84413;BME280;74611;53.106;8.778;2024-01-25T11:53:46;102863.75;;;7.72;88.09
84413;BME280;74611;53.106;8.778;2024-01-25T11:56:14;102866.03;;;7.54;86.65
84413;BME280;74611;53.106;8.778;2024-01-25T11:58:43;102862.81;;;7.73;89.42
84413;BME280;74611;53.106;8.778;2024-01-25T12:01:10;102863.03;;;7.70;87.98
84413;BME280;74611;53.106;8.778;2024-01-25T12:03:36;102859.91;;;7.76;87.78
84413;BME280;74611;53.106;8.778;2024-01-25T12:06:03;102853.25;;;7.82;87.93
84413;BME280;74611;53.106;8.778;2024-01-25T12:08:34;102841.59;;;7.83;88.25
84413;BME280;74611;53.106;8.778;2024-01-25T12:11:08;102851.44;;;7.82;86.64
84413;BME280;74611;53.106;8.778;2024-01-25T12:13:43;102852.50;;;7.80;86.99
84413;BME280;74611;53.106;8.778;2024-01-25T12:16:10;102856.88;;;7.70;87.50
84413;BME280;74611;53.106;8.778;2024-01-25T12:18:36;102854.09;;;7.82;88.27
84413;BME280;74611;53.106;8.778;2024-01-25T12:21:03;102851.75;;;7.67;86.37
84413;BME280;74611;53.106;8.778;2024-01-25T12:23:33;102847.25;;;7.67;85.77
84413;BME280;74611;53.106;8.778;2024-01-25T12:26:05;102856.03;;;7.80;86.94
84413;BME280;74611;53.106;8.778;2024-01-25T12:28:30;102862.34;;;7.79;88.75
84413;BME280;74611;53.106;8.778;2024-01-25T12:30:58;102861.47;;;7.79;87.86
84413;BME280;74611;53.106;8.778;2024-01-25T12:33:25;102865.72;;;7.81;85.53
84413;BME280;74611;53.106;8.778;2024-01-25T12:35:50;102864.16;;;7.79;84.36
84413;BME280;74611;53.106;8.778;2024-01-25T12:38:16;102868.53;;;7.80;86.75
84413;BME280;74611;53.106;8.778;2024-01-25T12:40:44;102863.19;;;7.80;87.49
84413;BME280;74611;53.106;8.778;2024-01-25T12:43:10;102862.34;;;7.79;87.34
84413;BME280;74611;53.106;8.778;2024-01-25T12:45:35;102853.09;;;7.72;86.76
84413;BME280;74611;53.106;8.778;2024-01-25T12:48:01;102862.34;;;7.79;87.56
84413;BME280;74611;53.106;8.778;2024-01-25T12:50:28;102854.78;;;7.73;88.12
84413;BME280;74611;53.106;8.778;2024-01-25T12:52:53;102864.13;;;7.68;86.17
84413;BME280;74611;53.106;8.778;2024-01-25T12:55:19;102870.25;;;7.57;86.44